Terminal Aerodrome Forecast
Issued by NWS Cleveland, OH

Home | Current Version | Previous Version | Graphics & Text | Print | Product List | Glossary Off
Versions: 1 2 3 4 5 6 7 8 9 10 11 12 13 14 15 16 17 18 19 20

000
FTUS41 KCLE 152000 CCA
TAFERI
TAF COR
KERI 152053Z 1521/1618 21010KT P6SM VCSH SCT045 OVC080
     FM160000 22007KT 6SM -RA BR SCT020 OVC045
      TEMPO 1600/1602 4SM -RA BR OVC020
     FM160200 30004KT 5SM -RA BR OVC020
     FM160600 33004KT 5SM BR OVC007
     FM161100 35004KT P6SM OVC015
     FM161400 33006KT P6SM SCT030=

USA.gov is the U.S. government's official web portal to all federal, state and local government web resources and services.